Time;durP1;ratioP1;P1;durP2;ratioP2;P2;SDS_P1;SDS_P2;PMS_P1;PMS_P2;Temp;Humidity;BMP_temperature;BMP_pressure;BME280_temperature;BME280_humidity;BME280_pressure;Samples;Min_cycle;Max_cycle;Signal;HPM_P1;HPM_P2
2022/10/16 00:01:10;;;;;;;2.97;2.53;;;17.20;99.90;;;;;;5005726;28;20096;-57
2022/10/16 00:03:58;;;;;;;2.70;2.25;;;17.20;99.90;;;;;;5011765;28;20038;-50
2022/10/16 00:06:44;;;;;;;2.95;2.40;;;17.20;99.90;;;;;;4996239;28;20022;-51
2022/10/16 00:09:30;;;;;;;3.58;2.33;;;17.20;99.90;;;;;;5011096;28;20041;-52
2022/10/16 00:12:16;;;;;;;2.50;2.30;;;17.20;99.90;;;;;;4997329;28;20049;-52
2022/10/16 00:15:02;;;;;;;2.55;2.30;;;17.20;99.90;;;;;;5011389;28;20037;-54
2022/10/16 00:17:48;;;;;;;2.20;2.00;;;17.30;99.90;;;;;;5009454;28;20026;-53
2022/10/16 00:20:36;;;;;;;2.30;2.10;;;17.30;99.90;;;;;;5010170;28;20041;-50
2022/10/16 00:23:22;;;;;;;2.00;1.90;;;17.30;99.90;;;;;;5010397;28;20506;-50
2022/10/16 00:26:12;;;;;;;3.22;2.10;;;17.30;99.90;;;;;;5010431;28;20022;-57
2022/10/16 00:28:58;;;;;;;2.53;2.00;;;17.40;99.90;;;;;;5009887;28;20030;-58
2022/10/16 00:31:44;;;;;;;2.25;1.95;;;17.40;99.90;;;;;;4995803;28;20030;-52
2022/10/16 00:34:30;;;;;;;2.10;1.90;;;17.40;99.90;;;;;;5011702;28;20644;-53
2022/10/16 00:37:16;;;;;;;5.25;3.63;;;17.40;99.90;;;;;;5010718;28;20454;-53
2022/10/16 00:40:02;;;;;;;3.28;2.22;;;17.40;99.90;;;;;;5010299;28;20030;-51
2022/10/16 00:42:48;;;;;;;4.15;2.25;;;17.40;99.90;;;;;;5010660;28;20030;-54
2022/10/16 00:45:34;;;;;;;3.08;1.98;;;17.40;99.90;;;;;;5011099;28;20034;-58
2022/10/16 00:48:20;;;;;;;4.47;2.13;;;17.40;99.90;;;;;;5011616;28;20041;-57
2022/10/16 00:51:07;;;;;;;2.20;2.00;;;17.30;99.90;;;;;;5010703;28;20021;-50
2022/10/16 00:53:53;;;;;;;3.17;2.20;;;17.20;99.90;;;;;;5013260;28;20022;-56
2022/10/16 00:56:40;;;;;;;2.45;1.90;;;17.10;99.90;;;;;;5012920;28;20048;-57
2022/10/16 00:59:42;;;;;;;3.22;1.88;;;17.00;99.90;;;;;;5012260;28;20033;-53
2022/10/16 01:02:28;;;;;;;2.45;2.20;;;17.10;99.90;;;;;;5003737;28;20034;-52
2022/10/16 01:05:14;;;;;;;2.28;2.03;;;17.10;99.90;;;;;;5011245;28;20109;-50
2022/10/16 01:08:21;;;;;;;2.95;2.13;;;17.10;99.90;;;;;;5008033;28;20092;-50
2022/10/16 01:11:31;;;;;;;3.97;2.20;;;17.10;99.90;;;;;;4999611;28;20532;-54
2022/10/16 01:14:39;;;;;;;3.17;2.08;;;17.20;99.90;;;;;;5010503;28;20038;-56
2022/10/16 01:17:31;;;;;;;2.30;2.10;;;17.10;99.90;;;;;;5009843;28;20034;-50
2022/10/16 01:20:20;;;;;;;2.33;2.10;;;17.10;99.90;;;;;;4991253;28;20115;-53
2022/10/16 01:23:25;;;;;;;4.15;2.00;;;17.00;99.90;;;;;;4990906;28;20030;-56
2022/10/16 01:26:33;;;;;;;2.45;2.25;;;17.10;99.90;;;;;;4991549;28;20737;-54
2022/10/16 01:29:41;;;;;;;2.95;2.20;;;17.00;99.90;;;;;;5010036;28;20461;-56
2022/10/16 01:33:00;;;;;;;2.30;2.00;;;17.00;99.90;;;;;;5007452;28;20185;-57
2022/10/16 01:35:52;;;;;;;4.68;2.65;;;17.00;99.90;;;;;;4996762;28;20383;-58
2022/10/16 01:38:40;;;;;;;2.20;2.03;;;17.00;99.90;;;;;;5011855;28;20045;-57
2022/10/16 01:41:44;;;;;;;2.58;2.10;;;16.90;99.90;;;;;;5014381;28;20030;-56
2022/10/16 01:44:33;;;;;;;2.97;2.10;;;16.90;99.90;;;;;;5014179;28;20057;-52
2022/10/16 01:47:24;;;;;;;2.58;2.10;;;16.70;99.90;;;;;;4999920;28;20052;-59
2022/10/16 01:50:12;;;;;;;3.00;2.25;;;16.70;99.90;;;;;;5013794;28;20041;-57
2022/10/16 01:52:58;;;;;;;3.17;2.33;;;16.80;99.90;;;;;;5014329;28;20030;-56
2022/10/16 01:55:47;;;;;;;3.28;2.30;;;16.90;99.90;;;;;;4994286;28;20487;-52
2022/10/16 01:58:38;;;;;;;2.10;2.00;;;17.00;99.90;;;;;;4997119;28;20037;-57
2022/10/16 02:01:28;;;;;;;2.20;2.00;;;17.10;99.90;;;;;;5014450;28;20498;-54
2022/10/16 02:04:45;;;;;;;2.45;2.25;;;17.00;99.90;;;;;;5006968;28;20093;-57
2022/10/16 02:07:31;;;;;;;2.38;2.05;;;16.80;99.90;;;;;;5012858;28;20022;-53
2022/10/16 02:10:18;;;;;;;2.30;2.10;;;16.70;99.90;;;;;;5012570;28;20037;-53
2022/10/16 02:13:09;;;;;;;2.45;2.03;;;16.70;99.90;;;;;;5011906;28;20026;-58
2022/10/16 02:15:55;;;;;;;3.00;2.38;;;16.70;99.90;;;;;;5002267;28;20445;-58
2022/10/16 02:18:43;;;;;;;2.55;2.35;;;16.60;99.90;;;;;;5013718;28;20457;-54
2022/10/16 02:21:35;;;;;;;2.65;2.30;;;16.60;99.90;;;;;;5012818;28;20033;-55
2022/10/16 02:24:35;;;;;;;3.20;2.60;;;16.60;99.90;;;;;;5014122;28;20109;-54
2022/10/16 02:27:35;;;;;;;4.43;2.65;;;16.60;99.90;;;;;;4994321;28;20550;-53
2022/10/16 02:30:36;;;;;;;3.08;2.17;;;16.70;99.90;;;;;;4998632;28;20442;-57
2022/10/16 02:33:24;;;;;;;3.03;2.30;;;16.80;99.90;;;;;;5013710;28;20033;-53
2022/10/16 02:36:11;;;;;;;3.53;2.25;;;16.80;99.90;;;;;;5018781;28;20514;-58
2022/10/16 02:39:00;;;;;;;2.92;2.20;;;16.80;99.90;;;;;;5017017;28;20482;-55
2022/10/16 02:41:46;;;;;;;2.05;1.95;;;16.90;99.90;;;;;;5012227;28;20030;-56
2022/10/16 02:44:31;;;;;;;3.88;2.03;;;16.80;99.90;;;;;;5017079;28;20029;-53
2022/10/16 02:47:17;;;;;;;2.45;2.00;;;16.80;99.90;;;;;;5012657;28;20067;-58
2022/10/16 02:50:04;;;;;;;2.33;2.13;;;16.80;99.90;;;;;;5002559;28;20026;-57
2022/10/16 02:52:50;;;;;;;3.35;2.20;;;16.80;99.90;;;;;;4998470;28;20033;-57
2022/10/16 02:55:36;;;;;;;2.33;2.10;;;16.70;99.90;;;;;;5012922;28;20057;-55
2022/10/16 02:58:22;;;;;;;2.58;2.25;;;16.60;99.90;;;;;;5009786;28;20026;-57
2022/10/16 03:01:08;;;;;;;2.47;2.28;;;16.60;99.90;;;;;;5013619;28;20022;-57
2022/10/16 03:03:54;;;;;;;2.13;2.00;;;16.60;99.90;;;;;;5009044;28;20549;-56
2022/10/16 03:06:40;;;;;;;2.00;1.90;;;16.70;99.90;;;;;;5016047;28;20100;-57
2022/10/16 03:09:26;;;;;;;2.33;2.13;;;16.70;99.90;;;;;;5014956;28;20049;-56
2022/10/16 03:12:12;;;;;;;4.00;2.38;;;16.80;99.90;;;;;;5014631;28;20034;-52
2022/10/16 03:14:58;;;;;;;2.90;2.38;;;16.80;99.90;;;;;;5014605;28;20029;-53
2022/10/16 03:17:44;;;;;;;2.30;2.10;;;16.80;99.90;;;;;;5012119;28;20024;-54
2022/10/16 03:20:30;;;;;;;2.25;2.10;;;16.70;99.90;;;;;;5012470;28;20036;-54
2022/10/16 03:23:16;;;;;;;3.53;2.40;;;16.70;99.90;;;;;;5016831;28;20022;-56
2022/10/16 03:26:02;;;;;;;2.88;2.10;;;16.70;99.90;;;;;;5012398;28;20058;-54
2022/10/16 03:28:47;;;;;;;2.83;2.50;;;16.60;99.90;;;;;;5014759;28;20030;-52
2022/10/16 03:31:33;;;;;;;3.17;2.50;;;16.70;99.90;;;;;;5017672;28;20025;-56
2022/10/16 03:34:19;;;;;;;2.80;2.50;;;16.60;99.90;;;;;;5010481;28;20049;-55
2022/10/16 03:37:05;;;;;;;4.38;2.70;;;16.50;99.90;;;;;;5014815;28;20026;-53
2022/10/16 03:39:52;;;;;;;2.90;2.58;;;16.50;99.90;;;;;;5013815;28;20098;-55
2022/10/16 03:42:38;;;;;;;2.80;2.60;;;16.60;99.90;;;;;;5013699;28;20397;-54
2022/10/16 03:45:24;;;;;;;2.90;2.55;;;16.50;99.90;;;;;;5013016;28;20402;-56
2022/10/16 03:48:10;;;;;;;4.05;2.72;;;16.50;99.90;;;;;;5010398;28;20022;-57
2022/10/16 03:50:56;;;;;;;4.90;2.88;;;16.50;99.90;;;;;;5012879;28;20053;-54
2022/10/16 03:53:42;;;;;;;3.28;2.70;;;16.50;99.90;;;;;;5012905;28;20026;-55
2022/10/16 03:56:28;;;;;;;4.38;2.90;;;16.60;99.90;;;;;;4995605;28;20018;-57
2022/10/16 03:59:14;;;;;;;4.57;3.28;;;16.70;99.90;;;;;;5016550;28;20053;-55
2022/10/16 04:02:00;;;;;;;4.20;3.30;;;16.70;99.90;;;;;;5014071;28;20159;-59
2022/10/16 04:04:46;;;;;;;3.90;3.15;;;16.80;99.90;;;;;;5010328;28;20502;-59
2022/10/16 04:07:32;;;;;;;5.22;4.13;;;16.80;99.90;;;;;;4998249;28;20025;-58
2022/10/16 04:10:18;;;;;;;4.93;3.90;;;16.80;99.90;;;;;;5014711;28;20061;-58
2022/10/16 04:13:04;;;;;;;3.67;3.28;;;16.80;99.90;;;;;;5018689;28;20030;-55
2022/10/16 04:15:50;;;;;;;3.72;3.10;;;16.70;99.90;;;;;;5004420;28;20030;-61
2022/10/16 04:18:37;;;;;;;3.10;2.80;;;16.60;99.90;;;;;;5018261;28;20092;-59
2022/10/16 04:21:23;;;;;;;2.90;2.60;;;16.60;99.90;;;;;;5024233;28;20036;-59
2022/10/16 04:24:10;;;;;;;4.53;3.15;;;16.60;99.90;;;;;;4983869;28;20033;-58
2022/10/16 04:26:56;;;;;;;3.45;3.15;;;16.50;99.90;;;;;;5021451;28;20040;-57
2022/10/16 04:29:42;;;;;;;3.97;3.58;;;16.60;99.90;;;;;;5020135;28;20101;-56
2022/10/16 04:32:28;;;;;;;3.00;2.70;;;16.60;99.90;;;;;;4989828;28;20486;-58
2022/10/16 04:35:14;;;;;;;4.35;2.80;;;16.50;99.90;;;;;;5023921;28;20034;-60
2022/10/16 04:38:00;;;;;;;3.72;2.90;;;16.50;99.90;;;;;;5005236;28;20053;-59
2022/10/16 04:40:46;;;;;;;3.47;2.80;;;16.50;99.90;;;;;;4992647;28;20033;-55
2022/10/16 04:43:32;;;;;;;4.78;3.22;;;16.50;99.90;;;;;;5018415;28;20064;-54
2022/10/16 04:46:18;;;;;;;7.03;4.57;;;16.50;99.90;;;;;;5016128;28;20041;-54
2022/10/16 04:49:04;;;;;;;4.00;3.40;;;16.40;99.90;;;;;;4998834;28;20104;-54
2022/10/16 04:51:50;;;;;;;2.85;2.50;;;16.50;99.90;;;;;;5018381;28;20529;-56
2022/10/16 04:54:36;;;;;;;2.97;2.50;;;16.40;99.90;;;;;;5022487;28;20025;-55
2022/10/16 04:57:22;;;;;;;2.60;2.40;;;16.30;99.90;;;;;;5016838;28;20089;-57
2022/10/16 05:00:09;;;;;;;3.15;2.50;;;16.30;99.90;;;;;;4995773;28;20088;-61
2022/10/16 05:02:55;;;;;;;6.57;3.00;;;16.20;99.90;;;;;;5025608;28;20025;-52
2022/10/16 05:05:45;;;;;;;3.10;2.50;;;16.30;99.90;;;;;;5018133;28;20030;-52
2022/10/16 05:08:31;;;;;;;2.88;2.55;;;16.30;99.90;;;;;;5014400;28;20101;-52
2022/10/16 05:11:17;;;;;;;2.53;2.33;;;16.30;99.90;;;;;;5017849;28;20140;-54
2022/10/16 05:14:03;;;;;;;2.97;2.67;;;16.30;99.90;;;;;;5031259;28;20056;-56
2022/10/16 05:16:49;;;;;;;2.40;2.20;;;16.40;99.90;;;;;;5005759;28;20049;-55
2022/10/16 05:19:35;;;;;;;3.40;2.50;;;16.50;99.90;;;;;;5029405;28;20453;-57
2022/10/16 05:22:21;;;;;;;5.15;4.63;;;16.30;99.90;;;;;;5032088;28;20029;-60
2022/10/16 05:25:07;;;;;;;6.50;5.43;;;16.30;99.90;;;;;;5027765;28;20029;-56
2022/10/16 05:27:53;;;;;;;4.00;3.60;;;16.30;99.90;;;;;;5030544;28;20084;-57
2022/10/16 05:30:39;;;;;;;4.40;2.83;;;16.30;99.90;;;;;;5027762;28;20030;-58
2022/10/16 05:33:26;;;;;;;5.18;2.70;;;16.30;99.90;;;;;;5023810;28;20033;-57
2022/10/16 05:36:12;;;;;;;2.60;2.40;;;16.30;99.90;;;;;;5031907;28;20021;-59
2022/10/16 05:38:58;;;;;;;2.45;2.20;;;16.40;99.90;;;;;;5015425;28;20037;-56
2022/10/16 05:41:44;;;;;;;8.93;7.07;;;16.40;99.90;;;;;;5024730;28;20068;-58
2022/10/16 05:44:30;;;;;;;4.55;3.42;;;16.50;99.90;;;;;;5031578;28;20060;-53
2022/10/16 05:47:16;;;;;;;3.08;2.50;;;16.50;99.90;;;;;;5025682;28;20509;-58
2022/10/16 05:50:04;;;;;;;3.55;2.75;;;16.50;99.90;;;;;;5000402;28;20105;-57
2022/10/16 05:52:50;;;;;;;2.72;2.53;;;16.40;99.90;;;;;;4996128;28;20030;-56
2022/10/16 05:55:35;;;;;;;3.55;2.70;;;16.30;99.90;;;;;;5017416;28;20084;-53
2022/10/16 05:58:22;;;;;;;3.88;2.50;;;16.40;99.90;;;;;;5018461;28;20030;-54
2022/10/16 06:01:16;;;;;;;2.58;2.38;;;16.30;99.90;;;;;;5016635;28;20057;-50
2022/10/16 06:04:02;;;;;;;2.60;2.40;;;16.30;99.90;;;;;;5016823;28;20030;-60
2022/10/16 06:06:48;;;;;;;2.95;2.45;;;16.20;99.90;;;;;;5015595;28;20465;-58
2022/10/16 06:09:34;;;;;;;5.25;2.65;;;16.30;99.90;;;;;;5017584;28;20558;-52
2022/10/16 06:12:20;;;;;;;3.08;2.65;;;16.20;99.90;;;;;;5016322;28;20516;-58
2022/10/16 06:15:06;;;;;;;2.92;2.60;;;16.20;99.90;;;;;;5016431;28;20022;-56
2022/10/16 06:17:52;;;;;;;4.22;2.67;;;16.30;99.90;;;;;;5016217;28;20104;-53
2022/10/16 06:20:38;;;;;;;3.80;2.40;;;16.30;99.90;;;;;;5016890;28;20033;-57
2022/10/16 06:23:25;;;;;;;3.42;2.53;;;16.30;99.90;;;;;;5015196;28;20057;-54
2022/10/16 06:26:13;;;;;;;3.05;2.75;;;16.40;99.90;;;;;;4999193;28;20049;-54
2022/10/16 06:29:00;;;;;;;8.73;7.93;;;16.40;99.90;;;;;;5012753;28;20561;-58
2022/10/16 06:31:46;;;;;;;7.50;5.95;;;16.40;99.90;;;;;;5013133;28;20037;-57
2022/10/16 06:34:31;;;;;;;4.35;3.50;;;16.40;99.90;;;;;;5013787;28;20099;-60
2022/10/16 06:37:17;;;;;;;3.97;2.90;;;16.40;99.90;;;;;;5013539;28;20662;-55
2022/10/16 06:40:04;;;;;;;3.75;2.50;;;16.30;99.90;;;;;;5012878;28;20038;-50
2022/10/16 06:42:51;;;;;;;2.88;2.45;;;16.30;99.90;;;;;;5013052;28;20049;-55
2022/10/16 06:45:37;;;;;;;4.40;2.40;;;16.30;99.90;;;;;;5013000;28;20037;-55
2022/10/16 06:48:23;;;;;;;3.05;2.75;;;16.30;99.90;;;;;;4998529;28;20026;-57
2022/10/16 06:51:15;;;;;;;2.75;2.45;;;16.30;99.90;;;;;;5012738;28;20022;-55
2022/10/16 06:54:02;;;;;;;4.93;2.97;;;16.30;99.90;;;;;;5012872;28;20030;-58
2022/10/16 06:56:48;;;;;;;6.80;5.22;;;16.50;99.90;;;;;;5011759;28;20490;-58
2022/10/16 06:59:34;;;;;;;7.70;6.78;;;16.50;99.90;;;;;;5013119;28;20041;-57
2022/10/16 07:02:19;;;;;;;15.73;11.27;;;16.60;99.90;;;;;;5012554;28;20126;-54
2022/10/16 07:05:06;;;;;;;11.00;7.20;;;16.70;99.90;;;;;;5013136;28;20038;-58
2022/10/16 07:07:52;;;;;;;7.30;4.68;;;16.80;99.90;;;;;;5011835;28;20030;-55
2022/10/16 07:10:37;;;;;;;5.25;3.58;;;16.90;99.90;;;;;;4998014;28;20034;-57
2022/10/16 07:13:23;;;;;;;5.38;4.43;;;17.00;99.90;;;;;;5013157;28;20034;-59
2022/10/16 07:16:11;;;;;;;4.07;2.95;;;17.10;99.90;;;;;;5014287;28;20026;-57
2022/10/16 07:18:59;;;;;;;4.05;2.80;;;17.10;99.90;;;;;;5012795;28;20093;-53
2022/10/16 07:21:45;;;;;;;4.13;2.60;;;17.10;99.90;;;;;;5013093;28;20049;-59
2022/10/16 07:24:31;;;;;;;3.63;2.65;;;17.00;99.90;;;;;;4999913;28;20033;-57
2022/10/16 07:27:17;;;;;;;5.55;3.05;;;17.00;99.90;;;;;;4993761;28;20121;-54
2022/10/16 07:30:04;;;;;;;3.78;2.95;;;17.00;99.90;;;;;;4994740;28;20114;-59
2022/10/16 07:32:50;;;;;;;3.10;2.40;;;17.00;99.90;;;;;;5012835;28;20026;-58
2022/10/16 07:35:36;;;;;;;3.10;2.33;;;17.10;99.90;;;;;;5012392;28;20447;-56
2022/10/16 07:38:22;;;;;;;3.55;2.40;;;17.20;99.90;;;;;;5012350;28;20640;-59
2022/10/16 07:41:14;;;;;;;3.58;2.58;;;17.20;99.90;;;;;;4993169;28;20089;-59
2022/10/16 07:44:00;;;;;;;3.80;2.53;;;17.30;99.90;;;;;;4995541;28;20030;-59
2022/10/16 07:46:46;;;;;;;3.58;2.50;;;17.30;99.90;;;;;;4997936;28;20038;-59
2022/10/16 07:49:32;;;;;;;4.13;2.90;;;17.20;99.90;;;;;;5012861;28;20764;-61
2022/10/16 07:52:18;;;;;;;2.60;2.40;;;17.30;99.90;;;;;;5011943;28;20069;-61
2022/10/16 07:55:04;;;;;;;3.63;2.83;;;17.30;99.90;;;;;;5011913;28;20101;-61
2022/10/16 07:57:50;;;;;;;3.03;2.40;;;17.30;99.90;;;;;;5012066;28;20092;-60
2022/10/16 08:00:37;;;;;;;3.03;2.50;;;17.30;99.90;;;;;;5012047;28;20026;-58
2022/10/16 08:03:24;;;;;;;3.10;2.70;;;17.30;99.90;;;;;;4996497;28;20081;-59
2022/10/16 08:06:10;;;;;;;2.55;2.35;;;17.40;99.90;;;;;;4997438;28;20069;-57
2022/10/16 08:08:56;;;;;;;3.20;2.80;;;17.40;99.90;;;;;;5012175;28;20117;-58
2022/10/16 08:11:42;;;;;;;2.58;2.30;;;17.40;99.90;;;;;;5011437;28;20084;-60
2022/10/16 08:14:28;;;;;;;2.40;2.20;;;17.60;99.90;;;;;;5011210;28;20037;-59
2022/10/16 08:17:15;;;;;;;2.67;2.28;;;17.70;99.90;;;;;;5011161;28;20029;-61
2022/10/16 08:20:01;;;;;;;2.63;2.42;;;17.90;99.90;;;;;;5011599;28;20055;-58
2022/10/16 08:22:47;;;;;;;2.50;2.30;;;18.00;99.90;;;;;;5011184;28;20060;-57
2022/10/16 08:25:37;;;;;;;2.67;2.40;;;18.10;99.90;;;;;;4992840;28;20033;-60
2022/10/16 08:28:23;;;;;;;2.70;2.50;;;18.30;99.90;;;;;;4994716;28;20034;-60
2022/10/16 08:31:12;;;;;;;3.03;2.70;;;18.30;99.90;;;;;;5012036;28;20085;-59
2022/10/16 08:33:58;;;;;;;3.70;2.60;;;18.40;99.90;;;;;;5011433;28;20677;-61
2022/10/16 08:36:44;;;;;;;2.70;2.50;;;18.30;99.90;;;;;;4997143;28;20406;-58
2022/10/16 08:39:29;;;;;;;5.00;2.60;;;18.40;99.90;;;;;;4992294;28;20035;-55
2022/10/16 08:42:31;;;;;;;4.13;2.80;;;18.50;99.90;;;;;;4993434;28;20042;-56
2022/10/16 08:45:26;;;;;;;2.50;2.30;;;18.50;99.90;;;;;;5011431;28;20085;-61
2022/10/16 08:48:18;;;;;;;;;;;18.50;99.90;;;;;;5010696;28;20101;-58
2022/10/16 08:51:05;;;;;;;4.00;2.22;;;18.40;99.90;;;;;;5011957;28;19912;-61
2022/10/16 08:53:57;;;;;;;3.08;2.33;;;18.40;99.90;;;;;;5011083;28;20036;-60
2022/10/16 08:56:43;;;;;;;15.02;4.18;;;18.40;99.90;;;;;;5010865;28;20026;-60
2022/10/16 08:59:29;;;;;;;4.38;2.20;;;18.30;99.90;;;;;;5011126;28;20061;-60
2022/10/16 09:02:32;;;;;;;3.20;2.30;;;18.30;99.90;;;;;;5011391;28;20534;-60
2022/10/16 09:05:18;;;;;;;2.03;1.75;;;18.40;99.90;;;;;;5010534;28;20423;-62
2022/10/16 09:08:13;;;;;;;2.20;2.00;;;18.40;99.90;;;;;;5009776;28;20054;-60
2022/10/16 09:11:30;;;;;;;3.83;2.08;;;18.50;99.90;;;;;;5010835;28;20022;-58
2022/10/16 09:14:36;;;;;;;4.35;2.03;;;18.40;99.90;;;;;;5010883;28;20049;-60
2022/10/16 09:17:44;;;;;;;2.75;1.92;;;18.40;99.90;;;;;;5009522;28;20026;-60
2022/10/16 09:20:48;;;;;;;2.78;1.90;;;18.50;99.90;;;;;;5010667;28;20025;-62
2022/10/16 09:23:36;;;;;;;4.60;2.30;;;18.60;99.90;;;;;;5010745;28;20050;-58
2022/10/16 09:26:22;;;;;;;3.47;2.20;;;18.70;99.90;;;;;;5010475;28;20081;-60
2022/10/16 09:29:13;;;;;;;2.58;1.90;;;18.80;99.90;;;;;;5010713;28;20034;-60
2022/10/16 09:32:12;;;;;;;3.38;2.10;;;18.80;99.90;;;;;;4992122;28;20404;-57
2022/10/16 09:34:58;;;;;;;1.60;1.50;;;18.90;99.90;;;;;;4997058;28;20101;-59
2022/10/16 09:37:46;;;;;;;2.63;1.83;;;18.90;99.90;;;;;;5009904;28;20590;-59
2022/10/16 09:40:35;;;;;;;3.00;1.98;;;18.80;99.90;;;;;;5009674;28;20026;-59
2022/10/16 09:43:31;;;;;;;1.70;1.60;;;18.70;99.90;;;;;;5011519;28;20037;-56
2022/10/16 09:46:35;;;;;;;1.92;1.80;;;18.80;99.90;;;;;;5010295;28;20096;-55
2022/10/16 09:49:26;;;;;;;2.20;1.70;;;18.80;99.90;;;;;;5009326;28;20548;-55
2022/10/16 09:52:14;;;;;;;2.67;1.90;;;19.00;99.90;;;;;;4982843;28;20029;-58
2022/10/16 09:55:13;;;;;;;1.88;1.70;;;19.10;99.90;;;;;;4990294;28;20038;-57
2022/10/16 09:57:59;;;;;;;3.28;1.77;;;19.20;99.90;;;;;;4997334;28;20076;-58
2022/10/16 10:00:51;;;;;;;2.30;2.10;;;19.10;99.90;;;;;;5014210;28;20533;-59
2022/10/16 10:03:43;;;;;;;1.70;1.60;;;19.20;99.90;;;;;;5014275;28;20454;-61
2022/10/16 10:06:33;;;;;;;2.15;1.95;;;19.20;99.90;;;;;;5014290;28;20537;-60
2022/10/16 10:09:37;;;;;;;2.55;1.70;;;19.20;99.90;;;;;;5014030;28;20410;-59
2022/10/16 10:12:28;;;;;;;2.70;1.90;;;19.20;99.90;;;;;;5013241;28;20030;-60
2022/10/16 10:15:21;;;;;;;2.38;1.90;;;19.20;99.90;;;;;;5014617;28;20085;-60
2022/10/16 10:18:22;;;;;;;1.98;1.77;;;19.30;99.90;;;;;;5013811;28;20521;-60
2022/10/16 10:21:14;;;;;;;2.10;1.90;;;19.40;99.90;;;;;;5013156;28;20034;-59
2022/10/16 10:24:00;;;;;;;1.92;1.73;;;19.40;99.90;;;;;;4984318;28;20030;-59
2022/10/16 10:27:02;;;;;;;2.08;1.90;;;19.60;99.90;;;;;;5000886;28;20034;-58
2022/10/16 10:30:00;;;;;;;3.10;1.83;;;19.70;99.90;;;;;;4999808;28;20038;-60
2022/10/16 10:33:11;;;;;;;3.22;1.98;;;19.60;99.90;;;;;;5012585;28;20045;-59
2022/10/16 10:36:24;;;;;;;1.92;1.80;;;19.60;99.90;;;;;;5012500;28;20022;-59
2022/10/16 10:39:47;;;;;;;2.53;1.85;;;19.70;99.90;;;;;;5013632;28;20117;-60
2022/10/16 10:42:40;;;;;;;3.95;2.70;;;19.70;99.90;;;;;;5011124;28;20104;-59
2022/10/16 10:45:42;;;;;;;2.08;1.90;;;19.70;99.90;;;;;;4998217;28;20026;-61
2022/10/16 10:49:04;;;;;;;3.20;1.90;;;19.60;99.90;;;;;;5009712;28;20105;-59
2022/10/16 10:52:17;;;;;;;2.03;1.90;;;19.60;99.90;;;;;;5001957;28;20600;-61
2022/10/16 10:55:15;;;;;;;2.72;1.70;;;19.60;99.90;;;;;;5012799;28;20018;-58
2022/10/16 10:58:15;;;;;;;2.30;1.83;;;19.60;99.90;;;;;;5010727;28;20117;-58
2022/10/16 11:01:11;;;;;;;2.22;2.03;;;19.70;99.90;;;;;;5012520;28;20406;-59
2022/10/16 11:04:32;;;;;;;2.35;1.90;;;19.50;99.90;;;;;;4999077;28;20018;-60
2022/10/16 11:07:37;;;;;;;2.97;2.20;;;19.50;99.90;;;;;;4997762;28;20022;-59
2022/10/16 11:10:28;;;;;;;2.17;1.98;;;19.40;99.90;;;;;;5011531;28;20030;-60
2022/10/16 11:13:29;;;;;;;3.30;2.60;;;19.40;99.90;;;;;;5012652;28;20041;-59
2022/10/16 11:16:17;;;;;;;3.08;2.03;;;19.50;99.90;;;;;;5013268;28;20398;-55
2022/10/16 11:19:31;;;;;;;2.33;2.00;;;19.80;99.90;;;;;;4993680;28;20041;-60
2022/10/16 11:22:34;;;;;;;2.75;2.30;;;19.60;99.90;;;;;;4979406;28;20505;-60
2022/10/16 11:25:30;;;;;;;3.75;1.92;;;19.50;99.90;;;;;;4993886;28;20026;-60
2022/10/16 11:28:31;;;;;;;2.08;1.88;;;19.50;99.90;;;;;;5009544;28;20025;-60
2022/10/16 11:31:37;;;;;;;2.67;2.00;;;19.50;99.90;;;;;;5012645;28;20028;-61
2022/10/16 11:34:39;;;;;;;3.00;2.20;;;19.40;99.90;;;;;;5012279;28;20619;-61
2022/10/16 11:37:38;;;;;;;2.30;2.10;;;19.30;99.90;;;;;;5011655;28;20025;-60
2022/10/16 11:40:31;;;;;;;2.17;1.98;;;19.50;99.90;;;;;;5013575;28;20450;-61
2022/10/16 11:43:20;;;;;;;2.05;1.85;;;19.60;99.90;;;;;;5001699;28;20486;-61
2022/10/16 11:46:15;;;;;;;2.47;2.28;;;19.60;99.90;;;;;;5002216;28;20386;-59
2022/10/16 11:49:07;;;;;;;;;;;19.70;99.90;;;;;;5001788;28;20026;-60
2022/10/16 11:52:12;;;;;;;2.38;2.08;;;19.80;99.90;;;;;;5002054;28;19906;-59
2022/10/16 11:55:05;;;;;;;2.10;1.80;;;19.80;99.90;;;;;;5001104;28;20022;-59
2022/10/16 11:58:02;;;;;;;2.35;2.10;;;20.00;99.90;;;;;;5015634;28;20034;-62
2022/10/16 12:01:08;;;;;;;2.72;2.13;;;20.10;99.90;;;;;;5012665;28;20026;-59
2022/10/16 12:04:03;;;;;;;2.28;1.80;;;20.20;99.70;;;;;;4998106;28;20849;-60
2022/10/16 12:07:05;;;;;;;2.42;2.00;;;20.10;99.70;;;;;;5013764;28;20105;-59
2022/10/16 12:09:51;;;;;;;2.03;1.75;;;20.30;99.40;;;;;;5013202;28;20461;-60
2022/10/16 12:12:39;;;;;;;2.40;2.20;;;20.20;99.50;;;;;;4986214;28;20116;-62
2022/10/16 12:15:28;;;;;;;3.85;2.20;;;20.30;99.60;;;;;;5000311;28;20025;-62
2022/10/16 12:18:24;;;;;;;3.92;2.15;;;20.20;99.50;;;;;;5003783;28;20042;-62
2022/10/16 12:21:15;;;;;;;2.10;1.98;;;20.30;99.50;;;;;;4995155;28;20558;-58
2022/10/16 12:24:04;;;;;;;3.08;2.00;;;20.50;99.30;;;;;;5014159;28;20112;-62
2022/10/16 12:26:52;;;;;;;2.42;2.22;;;20.40;99.20;;;;;;4998053;28;20029;-60
2022/10/16 12:29:41;;;;;;;2.35;2.00;;;20.40;99.40;;;;;;4988849;28;20085;-61
2022/10/16 12:32:37;;;;;;;2.20;2.00;;;20.30;99.40;;;;;;5010259;28;20077;-61
2022/10/16 12:35:33;;;;;;;3.15;1.90;;;20.40;99.10;;;;;;4992652;28;20031;-58
2022/10/16 12:38:24;;;;;;;1.98;1.80;;;20.30;99.40;;;;;;4997913;28;20418;-59
2022/10/16 12:41:14;;;;;;;1.75;1.65;;;20.40;99.10;;;;;;4997589;28;20387;-61
2022/10/16 12:44:01;;;;;;;2.08;1.90;;;20.70;98.40;;;;;;5012699;28;20080;-60
2022/10/16 12:46:47;;;;;;;2.78;1.70;;;20.70;98.30;;;;;;5011628;28;20017;-59
2022/10/16 12:49:38;;;;;;;2.67;1.52;;;20.70;97.50;;;;;;4977225;28;20061;-60
2022/10/16 12:52:34;;;;;;;1.70;1.60;;;20.70;97.10;;;;;;5009082;28;20121;-58
2022/10/16 12:55:22;;;;;;;2.80;1.77;;;21.10;96.30;;;;;;4987815;28;20022;-58
2022/10/16 12:58:34;;;;;;;1.70;1.48;;;21.10;96.20;;;;;;5015497;28;20026;-60
2022/10/16 13:01:39;;;;;;;3.58;2.10;;;21.20;96.10;;;;;;5012436;28;20032;-59
2022/10/16 13:04:37;;;;;;;2.92;1.90;;;21.40;96.00;;;;;;5012133;28;20022;-60
2022/10/16 13:08:00;;;;;;;2.08;1.70;;;21.60;95.50;;;;;;5015962;28;20453;-59
2022/10/16 13:10:58;;;;;;;2.20;2.03;;;21.50;95.30;;;;;;5012271;28;20033;-58
2022/10/16 13:13:56;;;;;;;3.38;1.65;;;21.30;95.40;;;;;;5011729;28;20025;-61
2022/10/16 13:17:06;;;;;;;1.70;1.60;;;21.00;95.80;;;;;;4991628;28;20117;-61
2022/10/16 13:20:04;;;;;;;2.25;2.00;;;20.90;96.00;;;;;;5003534;28;20074;-60
2022/10/16 13:23:08;;;;;;;3.55;2.30;;;20.80;96.20;;;;;;4998139;28;20064;-58
2022/10/16 13:26:26;;;;;;;3.00;2.00;;;20.70;96.40;;;;;;5011665;28;20433;-61
2022/10/16 13:29:14;;;;;;;1.90;1.77;;;20.60;96.50;;;;;;5014724;28;20022;-58
2022/10/16 13:32:07;;;;;;;1.98;1.77;;;20.40;96.30;;;;;;5002086;28;20035;-58
2022/10/16 13:34:54;;;;;;;2.13;1.73;;;20.50;96.30;;;;;;5010167;28;20024;-57
2022/10/16 13:37:40;;;;;;;1.70;1.60;;;20.60;96.10;;;;;;5018764;28;20041;-59
2022/10/16 13:40:26;;;;;;;1.60;1.50;;;20.40;96.30;;;;;;4986675;28;20034;-59
2022/10/16 13:43:12;;;;;;;2.25;1.90;;;20.50;96.50;;;;;;4999492;28;20045;-58
2022/10/16 13:45:59;;;;;;;2.33;1.98;;;20.50;96.50;;;;;;4997033;28;20177;-59
2022/10/16 13:49:00;;;;;;;2.22;2.03;;;20.50;96.70;;;;;;5014286;28;20026;-57
2022/10/16 13:52:04;;;;;;;3.22;1.80;;;20.60;96.70;;;;;;5014408;28;20033;-59
2022/10/16 13:54:51;;;;;;;1.75;1.65;;;20.70;96.50;;;;;;5016171;28;20398;-60
2022/10/16 13:57:37;;;;;;;1.92;1.80;;;20.80;96.40;;;;;;5004160;28;20034;-62
2022/10/16 14:00:29;;;;;;;4.95;2.08;;;20.70;96.60;;;;;;5019721;28;20033;-61
2022/10/16 14:03:16;;;;;;;2.17;2.00;;;20.90;96.50;;;;;;5017512;28;20034;-60
2022/10/16 14:06:13;;;;;;;2.40;1.70;;;20.90;96.50;;;;;;4995855;28;20066;-61
2022/10/16 14:09:06;;;;;;;2.13;1.75;;;20.90;96.60;;;;;;4981749;28;20030;-62
2022/10/16 14:12:01;;;;;;;5.30;2.40;;;21.00;96.50;;;;;;4997505;28;20041;-60
2022/10/16 14:14:50;;;;;;;2.00;1.70;;;21.10;96.40;;;;;;4997174;28;20089;-61
2022/10/16 14:17:43;;;;;;;3.03;2.10;;;21.10;96.20;;;;;;5001795;28;20030;-62
2022/10/16 14:20:33;;;;;;;1.98;1.88;;;21.20;96.40;;;;;;5016019;28;20033;-61
2022/10/16 14:23:29;;;;;;;2.65;2.10;;;21.10;96.40;;;;;;5015800;28;20040;-63
2022/10/16 14:26:19;;;;;;;2.17;1.73;;;21.30;96.40;;;;;;5019736;28;20537;-61
2022/10/16 14:29:17;;;;;;;2.75;2.13;;;21.50;95.80;;;;;;5033837;28;20029;-60
2022/10/16 14:32:21;;;;;;;4.00;2.38;;;21.40;96.00;;;;;;5005987;28;20371;-62
2022/10/16 14:35:38;;;;;;;2.35;2.00;;;21.70;95.80;;;;;;5009461;28;20026;-61
2022/10/16 14:38:25;;;;;;;2.80;2.03;;;21.70;95.50;;;;;;4998601;28;20033;-61
2022/10/16 14:41:11;;;;;;;3.08;2.10;;;21.40;95.80;;;;;;5013551;28;20030;-61
2022/10/16 14:44:03;;;;;;;2.58;1.88;;;21.50;95.80;;;;;;4998118;28;20133;-61
2022/10/16 14:46:49;;;;;;;3.08;1.90;;;21.40;96.00;;;;;;4998192;28;20034;-59
2022/10/16 14:49:35;;;;;;;2.03;1.83;;;21.40;95.90;;;;;;5014596;28;20042;-62
2022/10/16 14:52:20;;;;;;;3.50;2.45;;;21.40;95.90;;;;;;5009745;28;20061;-61